Terminal Aerodrome Forecast
Issued by NWS Cleveland, OH

Home | Current Version | Previous Version | Graphics & Text | Print | Product List | Glossary On
Versions: 1 2 3 4 5 6 7 8 9 10 11 12 13
188
FTUS41 KCLE 171555 AAA
TAFCAK
TAF AMD
KCAK 171555Z 1716/1812 24006KT P6SM -SN OVC015
      TEMPO 1716/1718 4SM -SHSN
     FM171800 24010KT P6SM BKN025
     FM180000 23012KT P6SM SCT030 BKN120=

USA.gov is the U.S. government's official web portal to all federal, state and local government web resources and services.